createdAt,value
2023-02-09T00:00:29.655Z,53.54
2023-02-09T00:02:56.536Z,53.63
2023-02-09T00:05:23.382Z,53.30
2023-02-09T00:07:50.606Z,53.74
2023-02-09T00:10:17.735Z,53.58
2023-02-09T00:13:04.624Z,53.96
2023-02-09T00:15:31.500Z,53.85
2023-02-09T00:17:58.370Z,53.31
2023-02-09T00:20:25.233Z,53.53
2023-02-09T00:22:52.112Z,53.72
2023-02-09T00:25:19.180Z,54.16
2023-02-09T00:27:47.374Z,53.78
2023-02-09T00:30:14.501Z,54.49
2023-02-09T00:32:41.359Z,53.94
2023-02-09T00:35:08.473Z,54.51
2023-02-09T00:37:36.386Z,54.33
2023-02-09T00:40:04.846Z,54.24
2023-02-09T00:42:31.745Z,54.25
2023-02-09T00:44:59.962Z,54.26
2023-02-09T00:47:27.901Z,54.21
2023-02-09T00:49:54.885Z,53.81
2023-02-09T00:52:21.843Z,53.43
2023-02-09T00:54:48.783Z,53.68
2023-02-09T00:57:15.709Z,52.94
2023-02-09T00:59:42.619Z,53.62
2023-02-09T01:02:10.809Z,52.88
2023-02-09T01:04:38.591Z,52.86
2023-02-09T01:07:05.701Z,53.36
2023-02-09T01:09:32.818Z,53.20
2023-02-09T01:11:59.942Z,53.40
2023-02-09T01:14:27.060Z,52.76
2023-02-09T01:16:54.044Z,52.93
2023-02-09T01:19:22.308Z,52.44
2023-02-09T01:21:49.398Z,52.18
2023-02-09T01:24:16.509Z,52.39
2023-02-09T01:26:43.599Z,52.03
2023-02-09T01:29:13.880Z,52.85
2023-02-09T01:31:40.919Z,52.31
2023-02-09T01:34:07.945Z,52.22
2023-02-09T01:36:36.305Z,52.68
2023-02-09T01:39:04.219Z,52.63
2023-02-09T01:41:32.216Z,51.79
2023-02-09T01:44:01.870Z,52.71
2023-02-09T01:46:31.208Z,52.12
2023-02-09T01:49:07.195Z,52.14
2023-02-09T01:51:42.686Z,52.06
2023-02-09T01:54:14.689Z,52.49
2023-02-09T01:56:48.001Z,51.64
2023-02-09T01:59:16.961Z,51.51
2023-02-09T02:01:44.593Z,51.70
2023-02-09T02:04:12.083Z,51.41
2023-02-09T02:06:43.065Z,51.92
2023-02-09T02:09:13.345Z,51.23
2023-02-09T02:11:43.809Z,51.34
2023-02-09T02:14:29.135Z,52.12
2023-02-09T02:17:15.089Z,51.85
2023-02-09T02:20:14.973Z,52.36
2023-02-09T02:23:03.492Z,52.19
2023-02-09T02:26:20.381Z,52.23
2023-02-09T02:29:35.970Z,51.98
2023-02-09T02:32:32.950Z,51.76
2023-02-09T02:35:09.821Z,52.25
2023-02-09T02:37:54.754Z,51.46
2023-02-09T02:40:39.019Z,52.23
2023-02-09T02:43:19.104Z,51.54
2023-02-09T02:45:53.420Z,51.80
2023-02-09T02:48:33.255Z,51.87
2023-02-09T02:51:06.088Z,51.47
2023-02-09T02:53:37.697Z,51.50
2023-02-09T02:56:15.266Z,51.20
2023-02-09T02:58:47.475Z,51.55
2023-02-09T03:01:22.073Z,51.63
2023-02-09T03:03:52.818Z,51.16
2023-02-09T03:06:19.951Z,51.13
2023-02-09T03:08:53.545Z,50.91
2023-02-09T03:11:24.659Z,50.97
2023-02-09T03:14:11.580Z,50.51
2023-02-09T03:16:46.011Z,50.99
2023-02-09T03:19:32.936Z,50.60
2023-02-09T03:22:07.872Z,50.76
2023-02-09T03:24:42.623Z,50.37
2023-02-09T03:27:18.912Z,50.36
2023-02-09T03:29:49.588Z,50.36
2023-02-09T03:32:19.829Z,50.72
2023-02-09T03:34:48.779Z,50.80
2023-02-09T03:37:24.130Z,50.54
2023-02-09T03:39:51.037Z,50.47
2023-02-09T03:42:18.004Z,50.27
2023-02-09T03:44:44.941Z,50.11
2023-02-09T03:47:12.045Z,50.10
2023-02-09T03:49:41.446Z,50.46
2023-02-09T03:52:13.042Z,50.09
2023-02-09T03:54:40.883Z,49.96
2023-02-09T03:57:09.529Z,50.06
2023-02-09T03:59:37.688Z,49.44
2023-02-09T04:02:07.557Z,49.27
2023-02-09T04:04:35.391Z,49.83
2023-02-09T04:07:02.714Z,49.84
2023-02-09T04:09:31.071Z,49.59
2023-02-09T04:11:57.952Z,49.78
2023-02-09T04:14:24.985Z,49.13
2023-02-09T04:16:51.901Z,49.56
2023-02-09T04:19:18.945Z,49.59
2023-02-09T04:21:45.847Z,49.24
2023-02-09T04:24:13.094Z,49.71
2023-02-09T04:26:41.280Z,49.11
2023-02-09T04:29:08.184Z,49.09
2023-02-09T04:31:35.160Z,48.82
2023-02-09T04:34:02.480Z,48.98
2023-02-09T04:36:29.613Z,49.19
2023-02-09T04:38:56.597Z,49.04
2023-02-09T04:41:23.451Z,48.83
2023-02-09T04:43:54.235Z,48.54
2023-02-09T04:46:21.174Z,48.85
2023-02-09T04:48:48.063Z,48.70
2023-02-09T04:51:15.576Z,48.74
2023-02-09T04:53:42.515Z,49.00
2023-02-09T04:56:14.975Z,48.54
2023-02-09T04:59:01.168Z,48.91
2023-02-09T05:01:30.590Z,48.73
2023-02-09T05:03:57.882Z,48.42
2023-02-09T05:06:25.181Z,48.69
2023-02-09T05:08:53.126Z,48.23
2023-02-09T05:11:20.054Z,48.40
2023-02-09T05:13:47.017Z,48.15
2023-02-09T05:16:19.670Z,48.01
2023-02-09T05:18:50.181Z,47.77
2023-02-09T05:21:17.172Z,47.51
2023-02-09T05:23:44.042Z,47.15
2023-02-09T05:26:10.925Z,47.63
2023-02-09T05:28:37.869Z,47.35
2023-02-09T05:31:05.214Z,47.31
2023-02-09T05:33:32.121Z,47.21
2023-02-09T05:36:00.613Z,46.92
2023-02-09T05:38:27.755Z,46.56
2023-02-09T05:40:54.664Z,46.48
2023-02-09T05:43:21.601Z,46.58
2023-02-09T05:45:48.615Z,46.19
2023-02-09T05:48:15.568Z,46.24
2023-02-09T05:50:42.504Z,46.35
2023-02-09T05:53:10.783Z,45.79
2023-02-09T05:55:37.803Z,46.53
2023-02-09T05:58:05.518Z,45.73
2023-02-09T06:00:32.634Z,46.55
2023-02-09T06:02:59.642Z,46.40
2023-02-09T06:05:26.693Z,45.71
2023-02-09T06:07:53.826Z,46.43
2023-02-09T06:10:22.425Z,45.68
2023-02-09T06:12:49.524Z,46.17
2023-02-09T06:15:16.762Z,46.04
2023-02-09T06:17:43.961Z,46.09
2023-02-09T06:20:12.311Z,46.08
2023-02-09T06:22:39.239Z,46.04
2023-02-09T06:25:06.832Z,45.64
2023-02-09T06:27:35.687Z,45.34
2023-02-09T06:30:02.734Z,45.83
2023-02-09T06:32:30.940Z,45.17
2023-02-09T06:34:57.885Z,45.43
2023-02-09T06:37:24.944Z,45.14
2023-02-09T06:39:51.834Z,45.12
2023-02-09T06:42:18.898Z,45.29
2023-02-09T06:44:47.099Z,46.11
2023-02-09T06:47:13.962Z,45.31
2023-02-09T06:49:40.823Z,45.19
2023-02-09T06:52:07.890Z,45.13
2023-02-09T06:54:34.811Z,45.28
2023-02-09T06:57:01.676Z,45.25
2023-02-09T06:59:28.548Z,45.93
2023-02-09T07:01:56.845Z,45.50
2023-02-09T07:04:23.723Z,45.41
2023-02-09T07:06:50.639Z,45.00
2023-02-09T07:09:17.526Z,45.56
2023-02-09T07:11:44.460Z,44.76
2023-02-09T07:14:11.367Z,45.19
2023-02-09T07:16:38.298Z,44.91
2023-02-09T07:19:06.520Z,45.61
2023-02-09T07:21:33.432Z,44.94
2023-02-09T07:24:00.579Z,45.61
2023-02-09T07:26:28.052Z,45.31
2023-02-09T07:28:54.933Z,45.29
2023-02-09T07:31:21.982Z,45.76
2023-02-09T07:33:49.017Z,45.85
2023-02-09T07:36:17.746Z,45.23
2023-02-09T07:38:45.416Z,44.62
2023-02-09T07:41:17.053Z,45.15
2023-02-09T07:43:44.300Z,44.62
2023-02-09T07:46:15.224Z,43.93
2023-02-09T07:48:42.358Z,44.00
2023-02-09T07:51:14.144Z,43.82
2023-02-09T07:53:42.936Z,43.91
2023-02-09T07:56:09.913Z,43.80
2023-02-09T07:58:36.852Z,43.86
2023-02-09T08:01:06.650Z,44.00
2023-02-09T08:03:36.248Z,43.79
2023-02-09T08:06:10.599Z,42.89
2023-02-09T08:08:37.528Z,43.81
2023-02-09T08:11:05.975Z,43.24
2023-02-09T08:13:38.083Z,43.81
2023-02-09T08:16:10.313Z,43.24
2023-02-09T08:18:44.581Z,43.13
2023-02-09T08:21:15.627Z,42.78
2023-02-09T08:23:45.935Z,42.08
2023-02-09T08:26:15.049Z,42.45
2023-02-09T08:28:44.897Z,42.99
2023-02-09T08:31:14.516Z,41.49
2023-02-09T08:33:42.863Z,42.14
2023-02-09T08:36:11.397Z,41.36
2023-02-09T08:38:38.712Z,41.28
2023-02-09T08:41:08.420Z,41.02
2023-02-09T08:43:36.960Z,40.49
2023-02-09T08:46:05.531Z,40.99
2023-02-09T08:48:35.675Z,40.19
2023-02-09T08:51:03.351Z,39.31
2023-02-09T08:53:30.540Z,38.98
2023-02-09T08:55:57.949Z,38.76
2023-02-09T08:58:25.840Z,38.94
2023-02-09T09:00:59.972Z,38.45
2023-02-09T09:03:29.905Z,39.26
2023-02-09T09:05:57.901Z,38.87
2023-02-09T09:08:25.350Z,38.75
2023-02-09T09:10:52.425Z,38.36
2023-02-09T09:13:20.687Z,38.62
2023-02-09T09:15:48.100Z,37.56
2023-02-09T09:18:17.370Z,37.54
2023-02-09T09:20:44.392Z,37.13
2023-02-09T09:23:11.591Z,37.08
2023-02-09T09:25:38.831Z,35.10
2023-02-09T09:28:06.507Z,35.24
2023-02-09T09:30:34.314Z,34.93
2023-02-09T09:33:02.066Z,35.41
2023-02-09T09:35:31.208Z,34.83
2023-02-09T09:37:58.530Z,35.18
2023-02-09T09:40:30.133Z,34.86
2023-02-09T09:43:11.346Z,33.38
2023-02-09T09:45:39.431Z,33.26
2023-02-09T09:48:17.834Z,33.95
2023-02-09T09:50:47.234Z,33.72
2023-02-09T09:53:25.744Z,34.02
2023-02-09T09:55:59.208Z,33.71
2023-02-09T09:58:28.700Z,34.01
2023-02-09T10:00:56.428Z,33.73
2023-02-09T10:03:24.825Z,33.91
2023-02-09T10:05:55.799Z,33.27
2023-02-09T10:08:33.333Z,33.89
2023-02-09T10:11:05.642Z,32.79
2023-02-09T10:13:36.927Z,32.81
2023-02-09T10:16:15.411Z,32.80
2023-02-09T10:18:43.246Z,33.34
2023-02-09T10:21:15.971Z,33.08
2023-02-09T10:23:46.208Z,32.90
2023-02-09T10:26:25.639Z,33.90
2023-02-09T10:28:55.379Z,34.10
2023-02-09T10:31:47.146Z,33.03
2023-02-09T10:34:18.643Z,32.08
2023-02-09T10:36:53.846Z,32.35
2023-02-09T10:39:30.149Z,32.21
2023-02-09T10:42:17.505Z,32.30
2023-02-09T10:45:07.895Z,31.98
2023-02-09T10:47:38.521Z,32.32
2023-02-09T10:50:22.913Z,32.82
2023-02-09T10:53:00.306Z,32.44
2023-02-09T10:55:37.001Z,32.32
2023-02-09T10:58:18.878Z,32.68
2023-02-09T11:00:58.824Z,32.10
2023-02-09T11:03:26.125Z,31.82
2023-02-09T11:06:03.913Z,30.63
2023-02-09T11:08:51.655Z,30.62
2023-02-09T11:11:31.421Z,30.73
2023-02-09T11:13:59.997Z,31.06
2023-02-09T11:16:56.521Z,30.81
2023-02-09T11:20:19.282Z,30.51
2023-02-09T11:23:06.373Z,30.40
2023-02-09T11:25:41.283Z,30.05
2023-02-09T11:28:31.173Z,30.39
2023-02-09T11:31:41.025Z,29.04
2023-02-09T11:34:34.291Z,29.85
2023-02-09T11:37:17.746Z,30.36
2023-02-09T11:39:57.332Z,30.51
2023-02-09T11:42:46.311Z,30.12
2023-02-09T11:45:22.527Z,30.16
2023-02-09T11:48:03.464Z,30.43
2023-02-09T11:50:40.920Z,29.99
2023-02-09T11:53:22.005Z,30.33
2023-02-09T11:55:56.835Z,30.07
2023-02-09T11:58:42.669Z,30.57
2023-02-09T12:01:23.957Z,30.62
2023-02-09T12:04:03.754Z,30.63
2023-02-09T12:06:40.117Z,30.61
2023-02-09T12:09:29.884Z,30.75
2023-02-09T12:12:12.915Z,30.74
2023-02-09T12:15:03.279Z,30.78
2023-02-09T12:17:43.733Z,30.88
2023-02-09T12:20:31.369Z,30.74
2023-02-09T12:23:07.862Z,30.44
2023-02-09T12:25:52.958Z,30.67
2023-02-09T12:28:44.071Z,30.69
2023-02-09T12:31:23.867Z,30.59
2023-02-09T12:34:29.471Z,31.02
2023-02-09T12:37:17.357Z,31.01
2023-02-09T12:40:23.880Z,31.74
2023-02-09T12:43:25.225Z,32.07
2023-02-09T12:46:45.362Z,32.68
2023-02-09T12:49:32.855Z,32.40
2023-02-09T12:52:23.959Z,32.65
2023-02-09T12:54:53.231Z,33.06
2023-02-09T12:57:49.774Z,33.91
2023-02-09T13:00:51.639Z,33.97
2023-02-09T13:03:23.187Z,33.90
2023-02-09T13:05:53.903Z,34.06
2023-02-09T13:08:31.852Z,35.06
2023-02-09T13:11:06.375Z,35.37
2023-02-09T13:13:46.228Z,35.49
2023-02-09T13:16:55.160Z,35.29
2023-02-09T13:20:16.095Z,35.11
2023-02-09T13:23:03.291Z,34.84
2023-02-09T13:25:36.063Z,35.33
2023-02-09T13:28:14.681Z,35.48
2023-02-09T13:30:42.788Z,35.10
2023-02-09T13:33:27.712Z,35.49
2023-02-09T13:36:24.778Z,36.24
2023-02-09T13:39:21.090Z,36.11
2023-02-09T13:41:49.852Z,36.25
2023-02-09T13:44:24.990Z,36.78
2023-02-09T13:46:55.143Z,36.64
2023-02-09T13:49:23.434Z,36.80
2023-02-09T13:54:46.886Z,36.96
2023-02-09T13:57:34.350Z,36.67
2023-02-09T14:00:15.173Z,36.71
2023-02-09T14:02:47.993Z,36.92
2023-02-09T14:05:30.410Z,36.88
2023-02-09T14:07:58.008Z,36.84
2023-02-09T14:10:37.698Z,36.74
2023-02-09T14:13:19.446Z,36.73
2023-02-09T14:16:09.017Z,36.44
2023-02-09T14:18:51.638Z,36.00
2023-02-09T14:21:27.054Z,36.28
2023-02-09T14:24:19.821Z,36.66
2023-02-09T14:27:03.804Z,35.68
2023-02-09T14:29:36.661Z,35.76
2023-02-09T14:32:32.417Z,36.10
2023-02-09T14:35:17.222Z,36.11
2023-02-09T14:37:48.486Z,36.52
2023-02-09T14:40:30.880Z,35.92
2023-02-09T14:43:02.955Z,35.96
2023-02-09T14:45:38.029Z,36.08
2023-02-09T14:48:20.812Z,36.06
2023-02-09T14:50:49.297Z,36.44
2023-02-09T14:53:17.975Z,36.93
2023-02-09T14:55:48.401Z,36.40
2023-02-09T14:58:25.798Z,37.13
2023-02-09T15:00:56.849Z,37.05
2023-02-09T15:03:24.060Z,37.29
2023-02-09T15:05:57.341Z,36.77
2023-02-09T15:08:28.417Z,36.68
2023-02-09T15:10:59.296Z,36.56
2023-02-09T15:13:30.517Z,37.01
2023-02-09T15:15:57.624Z,37.13
2023-02-09T15:18:27.289Z,36.74
2023-02-09T15:20:54.690Z,37.37
2023-02-09T15:23:21.633Z,37.33
2023-02-09T15:25:48.933Z,37.38
2023-02-09T15:28:27.775Z,37.34
2023-02-09T15:30:57.521Z,37.50
2023-02-09T15:33:26.109Z,37.44
2023-02-09T15:35:53.867Z,37.15
2023-02-09T15:38:24.331Z,37.59
2023-02-09T15:41:10.339Z,37.26
2023-02-09T15:43:55.668Z,37.69
2023-02-09T15:46:42.682Z,37.77
2023-02-09T15:49:12.332Z,37.67
2023-02-09T15:51:41.028Z,38.06
2023-02-09T15:54:16.031Z,37.80
2023-02-09T15:56:47.424Z,38.26
2023-02-09T15:59:35.581Z,38.07
2023-02-09T16:02:42.382Z,38.65
2023-02-09T16:05:09.845Z,38.19
2023-02-09T16:07:37.430Z,38.34
2023-02-09T16:10:13.871Z,38.35
2023-02-09T16:12:40.921Z,38.84
2023-02-09T16:15:16.739Z,38.52
2023-02-09T16:17:47.266Z,38.87
2023-02-09T16:20:15.762Z,38.94
2023-02-09T16:22:47.586Z,39.14
2023-02-09T16:25:21.587Z,38.72
2023-02-09T16:27:50.249Z,38.55
2023-02-09T16:30:21.984Z,39.29
2023-02-09T16:32:50.407Z,39.24
2023-02-09T16:35:20.369Z,39.37
2023-02-09T16:37:51.019Z,38.63
2023-02-09T16:40:31.856Z,39.26
2023-02-09T16:43:01.567Z,39.55
2023-02-09T16:45:34.721Z,38.86
2023-02-09T16:48:03.712Z,39.44
2023-02-09T16:50:35.522Z,39.22
2023-02-09T16:53:15.378Z,39.05
2023-02-09T16:55:42.934Z,39.13
2023-02-09T16:58:13.911Z,39.26
2023-02-09T17:00:44.295Z,39.27
2023-02-09T17:03:17.210Z,39.37
2023-02-09T17:05:48.411Z,38.90
2023-02-09T17:08:18.963Z,38.83
2023-02-09T17:10:47.598Z,39.17
2023-02-09T17:13:20.604Z,39.65
2023-02-09T17:15:51.056Z,39.73
2023-02-09T17:18:23.331Z,39.75
2023-02-09T17:20:54.986Z,39.61
2023-02-09T17:23:25.796Z,39.61
2023-02-09T17:25:55.214Z,39.29
2023-02-09T17:28:23.459Z,39.77
2023-02-09T17:30:51.828Z,39.59
2023-02-09T17:33:24.310Z,39.80
2023-02-09T17:36:23.837Z,39.72
2023-02-09T17:38:41.028Z,39.82
2023-02-09T17:41:16.584Z,40.00
2023-02-09T17:43:44.028Z,39.71
2023-02-09T17:46:12.322Z,39.53
2023-02-09T17:48:40.718Z,39.68
2023-02-09T17:51:20.497Z,39.71
2023-02-09T17:53:48.785Z,39.89
2023-02-09T17:56:16.871Z,40.28
2023-02-09T17:58:44.331Z,40.47
2023-02-09T18:01:26.098Z,40.61
2023-02-09T18:03:58.392Z,40.69
2023-02-09T18:06:33.588Z,40.60
2023-02-09T18:09:02.006Z,41.11
2023-02-09T18:11:54.362Z,41.14
2023-02-09T18:14:23.970Z,40.94
2023-02-09T18:16:51.917Z,40.82
2023-02-09T18:19:20.718Z,41.36
2023-02-09T18:21:50.152Z,41.42
2023-02-09T18:24:18.031Z,41.05
2023-02-09T18:26:47.607Z,41.07
2023-02-09T18:29:14.752Z,41.60
2023-02-09T18:31:41.735Z,41.57
2023-02-09T18:34:08.864Z,41.76
2023-02-09T18:36:37.318Z,41.68
2023-02-09T18:39:04.382Z,42.14
2023-02-09T18:41:31.465Z,41.75
2023-02-09T18:43:58.398Z,42.33
2023-02-09T18:46:26.928Z,42.27
2023-02-09T18:48:54.574Z,42.77
2023-02-09T18:51:22.035Z,43.04
2023-02-09T18:53:51.201Z,42.71
2023-02-09T18:56:20.802Z,42.93
2023-02-09T18:58:49.603Z,43.20
2023-02-09T19:01:21.796Z,43.14
2023-02-09T19:03:50.187Z,43.76
2023-02-09T19:06:20.388Z,43.55
2023-02-09T19:08:49.983Z,43.91
2023-02-09T19:11:21.998Z,44.52
2023-02-09T19:14:08.221Z,44.60
2023-02-09T19:16:36.415Z,44.40
2023-02-09T19:19:03.893Z,44.23
2023-02-09T19:21:31.752Z,44.70
2023-02-09T19:23:58.886Z,44.19
2023-02-09T19:26:27.108Z,44.39
2023-02-09T19:28:56.920Z,44.54
2023-02-09T19:31:24.815Z,44.74
2023-02-09T19:33:56.044Z,45.14
2023-02-09T19:36:24.168Z,44.66
2023-02-09T19:38:51.112Z,45.53
2023-02-09T19:41:18.266Z,44.89
2023-02-09T19:43:46.543Z,45.35
2023-02-09T19:46:13.447Z,45.20
2023-02-09T19:48:41.242Z,45.29
2023-02-09T19:51:08.673Z,45.56
2023-02-09T19:53:35.840Z,44.87
2023-02-09T19:56:02.834Z,45.04
2023-02-09T19:58:30.169Z,45.45
2023-02-09T20:00:58.560Z,45.75
2023-02-09T20:03:25.724Z,45.84
2023-02-09T20:05:52.818Z,46.02
2023-02-09T20:08:20.246Z,45.81
2023-02-09T20:10:47.606Z,46.79
2023-02-09T20:13:15.599Z,46.70
2023-02-09T20:15:44.035Z,47.06
2023-02-09T20:18:14.874Z,47.17
2023-02-09T20:20:44.049Z,47.18
2023-02-09T20:23:11.004Z,47.83
2023-02-09T20:25:41.087Z,48.25
2023-02-09T20:28:08.184Z,47.78
2023-02-09T20:30:35.320Z,48.02
2023-02-09T20:33:02.274Z,48.89
2023-02-09T20:35:30.473Z,49.05
2023-02-09T20:37:57.337Z,49.27
2023-02-09T20:40:24.299Z,49.46
2023-02-09T20:43:09.557Z,49.57
2023-02-09T20:45:55.131Z,49.90
2023-02-09T20:48:22.077Z,49.71
2023-02-09T20:50:50.308Z,50.38
2023-02-09T20:53:17.381Z,50.65
2023-02-09T20:55:44.437Z,51.09
2023-02-09T20:58:13.455Z,51.06
2023-02-09T21:00:41.360Z,51.43
2023-02-09T21:03:08.918Z,51.17
2023-02-09T21:05:36.008Z,51.54
2023-02-09T21:08:06.395Z,51.82
2023-02-09T21:10:36.219Z,52.39
2023-02-09T21:13:04.913Z,52.41
2023-02-09T21:15:32.300Z,52.32
2023-02-09T21:17:59.246Z,52.57
2023-02-09T21:20:26.235Z,52.38
2023-02-09T21:22:53.550Z,52.78
2023-02-09T21:25:21.797Z,52.38
2023-02-09T21:27:48.761Z,52.76
2023-02-09T21:30:16.464Z,52.92
2023-02-09T21:32:43.503Z,52.84
2023-02-09T21:35:10.874Z,52.83
2023-02-09T21:37:38.759Z,52.55
2023-02-09T21:40:06.954Z,52.63
2023-02-09T21:42:36.800Z,52.69
2023-02-09T21:45:04.304Z,52.89
2023-02-09T21:47:35.401Z,52.62
2023-02-09T21:50:03.402Z,52.97
2023-02-09T21:52:31.470Z,53.06
2023-02-09T21:54:58.490Z,53.04
2023-02-09T21:57:26.180Z,52.91
2023-02-09T21:59:54.433Z,52.81
2023-02-09T22:02:21.986Z,53.44
2023-02-09T22:04:50.076Z,53.41
2023-02-09T22:07:16.997Z,53.38
2023-02-09T22:09:43.932Z,53.44
2023-02-09T22:12:10.852Z,53.45
2023-02-09T22:14:37.801Z,53.32
2023-02-09T22:17:06.004Z,53.07
2023-02-09T22:19:32.885Z,53.16
2023-02-09T22:22:01.003Z,53.40
2023-02-09T22:24:28.057Z,53.59
2023-02-09T22:26:54.894Z,54.07
2023-02-09T22:29:21.899Z,53.25
2023-02-09T22:31:48.746Z,53.72
2023-02-09T22:34:17.000Z,53.50
2023-02-09T22:36:43.872Z,53.69
2023-02-09T22:39:10.827Z,54.41
2023-02-09T22:41:37.761Z,53.66
2023-02-09T22:44:07.874Z,53.85
2023-02-09T22:46:38.018Z,53.33
2023-02-09T22:49:08.984Z,53.39
2023-02-09T22:51:37.235Z,53.79
2023-02-09T22:54:05.743Z,53.38
2023-02-09T22:56:36.583Z,53.66
2023-02-09T22:59:03.660Z,53.18
2023-02-09T23:01:31.162Z,53.70
2023-02-09T23:03:58.808Z,53.71
2023-02-09T23:06:28.477Z,53.55
2023-02-09T23:08:59.302Z,53.10
2023-02-09T23:11:27.653Z,52.95
2023-02-09T23:14:08.543Z,53.31
2023-02-09T23:16:38.849Z,52.83
2023-02-09T23:19:10.828Z,53.24
2023-02-09T23:21:40.971Z,52.88
2023-02-09T23:24:10.498Z,52.85
2023-02-09T23:26:38.122Z,53.01
2023-02-09T23:29:09.386Z,53.15
2023-02-09T23:31:36.887Z,53.44
2023-02-09T23:34:04.055Z,52.69
2023-02-09T23:36:33.967Z,53.14
2023-02-09T23:39:04.659Z,52.84
2023-02-09T23:41:34.717Z,53.31
2023-02-09T23:44:02.228Z,53.01
2023-02-09T23:46:29.595Z,53.09
2023-02-09T23:48:58.176Z,53.37
2023-02-09T23:51:28.468Z,53.21
2023-02-09T23:53:57.320Z,53.62
2023-02-09T23:56:25.606Z,53.26
2023-02-09T23:58:55.305Z,53.96
